sensor_id;sensor_type;location;lat;lon;timestamp;P1;durP1;ratioP1;P2;durP2;ratioP2
75220;SDS011;63802;53.232;6.570;2023-12-28T00:02:07;7.32;;;3.05;;
75220;SDS011;63802;53.232;6.570;2023-12-28T00:04:34;6.22;;;3.10;;
75220;SDS011;63802;53.232;6.570;2023-12-28T00:07:00;6.18;;;2.97;;
75220;SDS011;63802;53.232;6.570;2023-12-28T00:09:27;5.85;;;3.15;;
75220;SDS011;63802;53.232;6.570;2023-12-28T00:11:52;6.65;;;2.90;;
75220;SDS011;63802;53.232;6.570;2023-12-28T00:14:17;6.43;;;2.83;;
75220;SDS011;63802;53.232;6.570;2023-12-28T00:16:43;7.65;;;2.83;;
75220;SDS011;63802;53.232;6.570;2023-12-28T00:19:08;6.20;;;2.97;;
75220;SDS011;63802;53.232;6.570;2023-12-28T00:21:34;8.20;;;3.17;;
75220;SDS011;63802;53.232;6.570;2023-12-28T00:23:59;7.40;;;3.47;;
75220;SDS011;63802;53.232;6.570;2023-12-28T00:26:25;5.10;;;2.75;;
75220;SDS011;63802;53.232;6.570;2023-12-28T00:28:50;5.88;;;3.03;;
75220;SDS011;63802;53.232;6.570;2023-12-28T00:31:16;5.22;;;3.20;;
75220;SDS011;63802;53.232;6.570;2023-12-28T00:33:41;5.10;;;2.63;;
75220;SDS011;63802;53.232;6.570;2023-12-28T00:36:07;7.47;;;3.00;;
75220;SDS011;63802;53.232;6.570;2023-12-28T00:38:33;6.03;;;2.70;;
75220;SDS011;63802;53.232;6.570;2023-12-28T00:40:58;8.82;;;3.42;;
75220;SDS011;63802;53.232;6.570;2023-12-28T00:43:24;7.30;;;3.22;;
75220;SDS011;63802;53.232;6.570;2023-12-28T00:45:49;6.30;;;2.92;;
75220;SDS011;63802;53.232;6.570;2023-12-28T00:48:15;6.25;;;2.80;;
75220;SDS011;63802;53.232;6.570;2023-12-28T00:50:40;8.25;;;3.28;;
75220;SDS011;63802;53.232;6.570;2023-12-28T00:53:06;5.55;;;2.67;;
75220;SDS011;63802;53.232;6.570;2023-12-28T00:55:31;7.00;;;3.35;;
75220;SDS011;63802;53.232;6.570;2023-12-28T00:57:57;7.65;;;2.83;;
75220;SDS011;63802;53.232;6.570;2023-12-28T01:00:22;8.68;;;2.95;;
75220;SDS011;63802;53.232;6.570;2023-12-28T01:02:48;10.10;;;3.22;;
75220;SDS011;63802;53.232;6.570;2023-12-28T01:05:14;7.13;;;2.72;;
75220;SDS011;63802;53.232;6.570;2023-12-28T01:07:39;6.57;;;3.25;;
75220;SDS011;63802;53.232;6.570;2023-12-28T01:10:05;7.38;;;3.25;;
75220;SDS011;63802;53.232;6.570;2023-12-28T01:12:31;7.72;;;2.95;;
75220;SDS011;63802;53.232;6.570;2023-12-28T01:14:57;6.22;;;3.17;;
75220;SDS011;63802;53.232;6.570;2023-12-28T01:17:22;6.38;;;2.58;;
75220;SDS011;63802;53.232;6.570;2023-12-28T01:19:47;6.28;;;2.67;;
75220;SDS011;63802;53.232;6.570;2023-12-28T01:22:13;8.05;;;2.72;;
75220;SDS011;63802;53.232;6.570;2023-12-28T01:24:39;10.70;;;2.75;;
75220;SDS011;63802;53.232;6.570;2023-12-28T01:27:04;6.32;;;2.65;;
75220;SDS011;63802;53.232;6.570;2023-12-28T01:29:30;8.77;;;2.80;;
75220;SDS011;63802;53.232;6.570;2023-12-28T01:31:55;7.32;;;2.97;;
75220;SDS011;63802;53.232;6.570;2023-12-28T01:34:21;5.57;;;2.40;;
75220;SDS011;63802;53.232;6.570;2023-12-28T01:36:47;6.72;;;2.92;;
75220;SDS011;63802;53.232;6.570;2023-12-28T01:39:13;8.43;;;2.80;;
75220;SDS011;63802;53.232;6.570;2023-12-28T01:41:40;9.40;;;2.60;;
75220;SDS011;63802;53.232;6.570;2023-12-28T01:44:05;6.32;;;3.55;;
75220;SDS011;63802;53.232;6.570;2023-12-28T01:46:31;10.85;;;3.13;;
75220;SDS011;63802;53.232;6.570;2023-12-28T01:48:58;13.18;;;3.38;;
75220;SDS011;63802;53.232;6.570;2023-12-28T01:51:27;9.52;;;2.90;;
75220;SDS011;63802;53.232;6.570;2023-12-28T01:53:53;5.85;;;2.70;;
75220;SDS011;63802;53.232;6.570;2023-12-28T01:56:19;8.25;;;2.75;;
75220;SDS011;63802;53.232;6.570;2023-12-28T01:58:46;9.43;;;2.75;;
75220;SDS011;63802;53.232;6.570;2023-12-28T02:01:13;8.48;;;2.95;;
75220;SDS011;63802;53.232;6.570;2023-12-28T02:03:39;6.38;;;2.53;;
75220;SDS011;63802;53.232;6.570;2023-12-28T02:06:04;9.82;;;2.80;;
75220;SDS011;63802;53.232;6.570;2023-12-28T02:08:32;12.18;;;2.58;;
75220;SDS011;63802;53.232;6.570;2023-12-28T02:10:57;8.50;;;2.97;;
75220;SDS011;63802;53.232;6.570;2023-12-28T02:13:23;12.98;;;3.17;;
75220;SDS011;63802;53.232;6.570;2023-12-28T02:15:58;7.38;;;2.92;;
75220;SDS011;63802;53.232;6.570;2023-12-28T02:18:34;8.85;;;2.95;;
75220;SDS011;63802;53.232;6.570;2023-12-28T02:21:04;12.00;;;2.80;;
75220;SDS011;63802;53.232;6.570;2023-12-28T02:23:32;9.43;;;2.60;;
75220;SDS011;63802;53.232;6.570;2023-12-28T02:25:58;12.00;;;3.10;;
75220;SDS011;63802;53.232;6.570;2023-12-28T02:28:23;8.07;;;2.67;;
75220;SDS011;63802;53.232;6.570;2023-12-28T02:30:49;9.30;;;2.80;;
75220;SDS011;63802;53.232;6.570;2023-12-28T02:33:33;7.28;;;2.63;;
75220;SDS011;63802;53.232;6.570;2023-12-28T02:36:12;7.07;;;2.80;;
75220;SDS011;63802;53.232;6.570;2023-12-28T02:38:39;14.80;;;2.80;;
75220;SDS011;63802;53.232;6.570;2023-12-28T02:41:06;9.95;;;3.00;;
75220;SDS011;63802;53.232;6.570;2023-12-28T02:43:33;11.02;;;2.67;;
75220;SDS011;63802;53.232;6.570;2023-12-28T02:45:59;5.53;;;2.28;;
75220;SDS011;63802;53.232;6.570;2023-12-28T02:48:25;9.30;;;3.03;;
75220;SDS011;63802;53.232;6.570;2023-12-28T02:50:51;5.25;;;2.55;;
75220;SDS011;63802;53.232;6.570;2023-12-28T02:53:16;6.18;;;2.65;;
75220;SDS011;63802;53.232;6.570;2023-12-28T02:55:42;7.70;;;2.70;;
75220;SDS011;63802;53.232;6.570;2023-12-28T02:58:07;5.72;;;2.63;;
75220;SDS011;63802;53.232;6.570;2023-12-28T03:00:33;8.50;;;2.75;;
75220;SDS011;63802;53.232;6.570;2023-12-28T03:02:58;9.02;;;2.95;;
75220;SDS011;63802;53.232;6.570;2023-12-28T03:05:24;8.63;;;2.40;;
75220;SDS011;63802;53.232;6.570;2023-12-28T03:07:49;8.60;;;2.80;;
75220;SDS011;63802;53.232;6.570;2023-12-28T03:10:15;7.43;;;2.53;;
75220;SDS011;63802;53.232;6.570;2023-12-28T03:12:40;6.68;;;2.60;;
75220;SDS011;63802;53.232;6.570;2023-12-28T03:15:06;8.13;;;2.22;;
75220;SDS011;63802;53.232;6.570;2023-12-28T03:17:32;4.70;;;2.70;;
75220;SDS011;63802;53.232;6.570;2023-12-28T03:19:58;13.57;;;3.60;;
75220;SDS011;63802;53.232;6.570;2023-12-28T03:22:24;8.77;;;2.40;;
75220;SDS011;63802;53.232;6.570;2023-12-28T03:24:50;14.57;;;2.88;;
75220;SDS011;63802;53.232;6.570;2023-12-28T03:27:16;8.55;;;2.70;;
75220;SDS011;63802;53.232;6.570;2023-12-28T03:29:41;11.95;;;3.03;;
75220;SDS011;63802;53.232;6.570;2023-12-28T03:32:08;7.45;;;2.38;;
75220;SDS011;63802;53.232;6.570;2023-12-28T03:34:33;12.18;;;2.33;;
75220;SDS011;63802;53.232;6.570;2023-12-28T03:36:59;8.50;;;2.50;;
75220;SDS011;63802;53.232;6.570;2023-12-28T03:39:25;6.22;;;2.67;;
75220;SDS011;63802;53.232;6.570;2023-12-28T03:41:51;8.32;;;2.20;;
75220;SDS011;63802;53.232;6.570;2023-12-28T03:44:18;6.88;;;2.13;;
75220;SDS011;63802;53.232;6.570;2023-12-28T03:46:49;8.27;;;2.50;;
75220;SDS011;63802;53.232;6.570;2023-12-28T03:49:19;12.93;;;2.75;;
75220;SDS011;63802;53.232;6.570;2023-12-28T03:54:11;8.20;;;2.30;;
75220;SDS011;63802;53.232;6.570;2023-12-28T03:56:36;12.07;;;2.65;;
75220;SDS011;63802;53.232;6.570;2023-12-28T03:59:04;5.63;;;1.90;;
75220;SDS011;63802;53.232;6.570;2023-12-28T04:01:30;9.45;;;2.40;;
75220;SDS011;63802;53.232;6.570;2023-12-28T04:03:56;7.03;;;2.05;;
75220;SDS011;63802;53.232;6.570;2023-12-28T04:06:21;6.82;;;2.10;;
75220;SDS011;63802;53.232;6.570;2023-12-28T04:08:46;9.68;;;2.20;;
75220;SDS011;63802;53.232;6.570;2023-12-28T04:11:12;8.23;;;2.42;;
75220;SDS011;63802;53.232;6.570;2023-12-28T04:13:37;8.07;;;2.38;;
75220;SDS011;63802;53.232;6.570;2023-12-28T04:16:04;5.93;;;2.10;;
75220;SDS011;63802;53.232;6.570;2023-12-28T04:18:29;9.00;;;2.38;;
75220;SDS011;63802;53.232;6.570;2023-12-28T04:20:55;8.52;;;2.38;;
75220;SDS011;63802;53.232;6.570;2023-12-28T04:23:20;9.98;;;2.35;;
75220;SDS011;63802;53.232;6.570;2023-12-28T04:25:46;9.60;;;2.55;;
75220;SDS011;63802;53.232;6.570;2023-12-28T04:28:11;7.55;;;2.33;;
75220;SDS011;63802;53.232;6.570;2023-12-28T04:30:36;8.80;;;3.33;;
75220;SDS011;63802;53.232;6.570;2023-12-28T04:33:02;11.70;;;2.60;;
75220;SDS011;63802;53.232;6.570;2023-12-28T04:35:28;6.38;;;2.30;;
75220;SDS011;63802;53.232;6.570;2023-12-28T04:37:53;6.05;;;2.75;;
75220;SDS011;63802;53.232;6.570;2023-12-28T04:40:19;8.07;;;2.25;;
75220;SDS011;63802;53.232;6.570;2023-12-28T04:42:45;13.32;;;2.70;;
75220;SDS011;63802;53.232;6.570;2023-12-28T04:45:10;9.90;;;2.20;;
75220;SDS011;63802;53.232;6.570;2023-12-28T04:47:36;8.43;;;2.42;;
75220;SDS011;63802;53.232;6.570;2023-12-28T04:50:05;10.73;;;2.35;;
75220;SDS011;63802;53.232;6.570;2023-12-28T04:52:31;8.05;;;2.42;;
75220;SDS011;63802;53.232;6.570;2023-12-28T04:54:56;6.55;;;2.25;;
75220;SDS011;63802;53.232;6.570;2023-12-28T04:57:22;8.60;;;2.55;;
75220;SDS011;63802;53.232;6.570;2023-12-28T04:59:52;10.05;;;2.15;;
75220;SDS011;63802;53.232;6.570;2023-12-28T05:02:18;9.55;;;1.95;;
75220;SDS011;63802;53.232;6.570;2023-12-28T05:04:43;13.38;;;2.85;;
75220;SDS011;63802;53.232;6.570;2023-12-28T05:07:09;5.72;;;2.03;;
75220;SDS011;63802;53.232;6.570;2023-12-28T05:09:35;9.85;;;2.20;;
75220;SDS011;63802;53.232;6.570;2023-12-28T05:12:01;11.07;;;2.13;;
75220;SDS011;63802;53.232;6.570;2023-12-28T05:14:26;11.70;;;2.30;;
75220;SDS011;63802;53.232;6.570;2023-12-28T05:16:52;8.25;;;2.47;;
75220;SDS011;63802;53.232;6.570;2023-12-28T05:19:17;10.65;;;3.25;;
75220;SDS011;63802;53.232;6.570;2023-12-28T05:21:43;10.57;;;2.47;;
75220;SDS011;63802;53.232;6.570;2023-12-28T05:24:08;12.15;;;1.98;;
75220;SDS011;63802;53.232;6.570;2023-12-28T05:26:34;12.45;;;2.38;;
75220;SDS011;63802;53.232;6.570;2023-12-28T05:28:59;11.25;;;2.20;;
75220;SDS011;63802;53.232;6.570;2023-12-28T05:31:25;6.40;;;2.40;;
75220;SDS011;63802;53.232;6.570;2023-12-28T05:33:50;5.80;;;1.98;;
75220;SDS011;63802;53.232;6.570;2023-12-28T05:36:16;9.07;;;2.13;;
75220;SDS011;63802;53.232;6.570;2023-12-28T05:38:41;6.15;;;2.05;;
75220;SDS011;63802;53.232;6.570;2023-12-28T05:41:09;12.85;;;2.65;;
75220;SDS011;63802;53.232;6.570;2023-12-28T05:43:35;9.43;;;2.47;;
75220;SDS011;63802;53.232;6.570;2023-12-28T05:46:00;11.10;;;2.22;;
75220;SDS011;63802;53.232;6.570;2023-12-28T05:48:25;10.90;;;2.53;;
75220;SDS011;63802;53.232;6.570;2023-12-28T05:50:51;7.05;;;2.15;;
75220;SDS011;63802;53.232;6.570;2023-12-28T05:53:16;10.63;;;1.98;;
75220;SDS011;63802;53.232;6.570;2023-12-28T05:55:42;12.82;;;2.47;;
75220;SDS011;63802;53.232;6.570;2023-12-28T05:58:08;8.35;;;1.98;;
75220;SDS011;63802;53.232;6.570;2023-12-28T06:00:34;12.10;;;2.20;;
75220;SDS011;63802;53.232;6.570;2023-12-28T06:03:01;10.18;;;2.15;;
75220;SDS011;63802;53.232;6.570;2023-12-28T06:05:27;12.10;;;2.20;;
75220;SDS011;63802;53.232;6.570;2023-12-28T06:07:53;14.30;;;2.03;;
75220;SDS011;63802;53.232;6.570;2023-12-28T06:10:18;14.02;;;2.38;;
75220;SDS011;63802;53.232;6.570;2023-12-28T06:12:44;6.50;;;2.00;;
75220;SDS011;63802;53.232;6.570;2023-12-28T06:15:10;10.55;;;2.00;;
75220;SDS011;63802;53.232;6.570;2023-12-28T06:17:35;13.93;;;2.85;;
75220;SDS011;63802;53.232;6.570;2023-12-28T06:20:03;12.20;;;2.35;;
75220;SDS011;63802;53.232;6.570;2023-12-28T06:22:29;7.03;;;1.85;;
75220;SDS011;63802;53.232;6.570;2023-12-28T06:24:55;13.38;;;2.70;;
75220;SDS011;63802;53.232;6.570;2023-12-28T06:27:21;15.38;;;2.28;;
75220;SDS011;63802;53.232;6.570;2023-12-28T06:29:46;8.90;;;2.20;;
75220;SDS011;63802;53.232;6.570;2023-12-28T06:32:12;18.80;;;2.90;;
75220;SDS011;63802;53.232;6.570;2023-12-28T06:34:37;17.42;;;2.97;;
75220;SDS011;63802;53.232;6.570;2023-12-28T06:37:03;14.85;;;3.00;;
75220;SDS011;63802;53.232;6.570;2023-12-28T06:39:28;14.13;;;2.28;;
75220;SDS011;63802;53.232;6.570;2023-12-28T06:41:54;11.30;;;2.00;;
75220;SDS011;63802;53.232;6.570;2023-12-28T06:44:19;12.15;;;2.42;;
75220;SDS011;63802;53.232;6.570;2023-12-28T06:46:44;15.48;;;2.60;;
75220;SDS011;63802;53.232;6.570;2023-12-28T06:49:10;10.65;;;2.10;;
75220;SDS011;63802;53.232;6.570;2023-12-28T06:51:36;11.68;;;2.33;;
75220;SDS011;63802;53.232;6.570;2023-12-28T06:54:02;13.40;;;2.85;;
75220;SDS011;63802;53.232;6.570;2023-12-28T06:56:27;16.17;;;2.30;;
75220;SDS011;63802;53.232;6.570;2023-12-28T06:58:53;18.38;;;3.17;;
75220;SDS011;63802;53.232;6.570;2023-12-28T07:01:18;9.90;;;2.20;;
75220;SDS011;63802;53.232;6.570;2023-12-28T07:03:44;18.58;;;2.50;;
75220;SDS011;63802;53.232;6.570;2023-12-28T07:06:10;16.33;;;2.67;;
75220;SDS011;63802;53.232;6.570;2023-12-28T07:08:36;10.45;;;2.20;;
75220;SDS011;63802;53.232;6.570;2023-12-28T07:11:01;8.88;;;2.00;;
75220;SDS011;63802;53.232;6.570;2023-12-28T07:13:27;14.57;;;2.15;;
75220;SDS011;63802;53.232;6.570;2023-12-28T07:15:52;9.68;;;2.22;;
75220;SDS011;63802;53.232;6.570;2023-12-28T07:18:18;17.73;;;2.50;;
75220;SDS011;63802;53.232;6.570;2023-12-28T07:20:44;16.55;;;2.55;;
75220;SDS011;63802;53.232;6.570;2023-12-28T07:23:09;11.07;;;2.67;;
75220;SDS011;63802;53.232;6.570;2023-12-28T07:25:37;19.00;;;2.10;;
75220;SDS011;63802;53.232;6.570;2023-12-28T07:28:03;14.48;;;2.25;;
75220;SDS011;63802;53.232;6.570;2023-12-28T07:30:29;13.98;;;2.67;;
75220;SDS011;63802;53.232;6.570;2023-12-28T07:32:54;10.02;;;2.22;;
75220;SDS011;63802;53.232;6.570;2023-12-28T07:35:20;16.70;;;2.45;;
75220;SDS011;63802;53.232;6.570;2023-12-28T07:37:45;17.90;;;2.78;;
75220;SDS011;63802;53.232;6.570;2023-12-28T07:40:11;14.85;;;2.63;;
75220;SDS011;63802;53.232;6.570;2023-12-28T07:42:37;15.82;;;2.33;;
75220;SDS011;63802;53.232;6.570;2023-12-28T07:45:03;18.02;;;2.42;;
75220;SDS011;63802;53.232;6.570;2023-12-28T07:47:29;22.85;;;3.05;;
75220;SDS011;63802;53.232;6.570;2023-12-28T07:49:55;14.70;;;2.58;;
75220;SDS011;63802;53.232;6.570;2023-12-28T07:52:20;16.30;;;2.75;;
75220;SDS011;63802;53.232;6.570;2023-12-28T07:54:46;18.48;;;2.55;;
75220;SDS011;63802;53.232;6.570;2023-12-28T07:57:12;13.82;;;2.40;;
75220;SDS011;63802;53.232;6.570;2023-12-28T07:59:40;20.13;;;2.53;;
75220;SDS011;63802;53.232;6.570;2023-12-28T08:02:06;13.68;;;2.95;;
75220;SDS011;63802;53.232;6.570;2023-12-28T08:04:33;12.20;;;2.80;;
75220;SDS011;63802;53.232;6.570;2023-12-28T08:06:58;17.98;;;3.03;;
75220;SDS011;63802;53.232;6.570;2023-12-28T08:09:24;14.85;;;2.10;;
75220;SDS011;63802;53.232;6.570;2023-12-28T08:11:49;11.70;;;2.65;;
75220;SDS011;63802;53.232;6.570;2023-12-28T08:14:15;19.80;;;3.20;;
75220;SDS011;63802;53.232;6.570;2023-12-28T08:16:40;20.70;;;3.53;;
75220;SDS011;63802;53.232;6.570;2023-12-28T08:19:07;14.60;;;2.42;;
75220;SDS011;63802;53.232;6.570;2023-12-28T08:21:32;22.08;;;3.13;;
75220;SDS011;63802;53.232;6.570;2023-12-28T08:23:58;17.35;;;2.88;;
75220;SDS011;63802;53.232;6.570;2023-12-28T08:26:23;15.63;;;2.45;;
75220;SDS011;63802;53.232;6.570;2023-12-28T08:28:48;14.75;;;3.42;;
75220;SDS011;63802;53.232;6.570;2023-12-28T08:31:14;13.73;;;2.35;;
75220;SDS011;63802;53.232;6.570;2023-12-28T08:33:40;10.65;;;2.80;;
75220;SDS011;63802;53.232;6.570;2023-12-28T08:36:06;21.98;;;3.03;;
75220;SDS011;63802;53.232;6.570;2023-12-28T08:38:32;19.83;;;2.95;;
75220;SDS011;63802;53.232;6.570;2023-12-28T08:40:57;17.38;;;2.30;;
75220;SDS011;63802;53.232;6.570;2023-12-28T08:43:23;14.48;;;2.42;;
75220;SDS011;63802;53.232;6.570;2023-12-28T08:45:48;16.73;;;2.72;;
75220;SDS011;63802;53.232;6.570;2023-12-28T08:48:14;16.88;;;3.08;;
75220;SDS011;63802;53.232;6.570;2023-12-28T08:50:39;14.55;;;2.42;;
75220;SDS011;63802;53.232;6.570;2023-12-28T08:53:04;17.80;;;2.67;;
75220;SDS011;63802;53.232;6.570;2023-12-28T08:55:31;20.30;;;2.67;;
75220;SDS011;63802;53.232;6.570;2023-12-28T08:57:56;17.35;;;3.20;;
75220;SDS011;63802;53.232;6.570;2023-12-28T09:00:22;20.92;;;3.08;;
75220;SDS011;63802;53.232;6.570;2023-12-28T09:02:47;15.32;;;3.60;;
75220;SDS011;63802;53.232;6.570;2023-12-28T09:05:12;25.83;;;2.83;;
75220;SDS011;63802;53.232;6.570;2023-12-28T09:07:38;19.83;;;2.85;;
75220;SDS011;63802;53.232;6.570;2023-12-28T09:10:12;17.58;;;2.90;;
75220;SDS011;63802;53.232;6.570;2023-12-28T09:12:37;17.35;;;2.67;;
75220;SDS011;63802;53.232;6.570;2023-12-28T09:15:05;12.30;;;2.80;;
75220;SDS011;63802;53.232;6.570;2023-12-28T09:17:32;13.45;;;2.47;;
75220;SDS011;63802;53.232;6.570;2023-12-28T09:19:57;18.10;;;3.00;;
75220;SDS011;63802;53.232;6.570;2023-12-28T09:22:23;16.38;;;2.78;;
75220;SDS011;63802;53.232;6.570;2023-12-28T09:24:49;21.10;;;3.10;;
75220;SDS011;63802;53.232;6.570;2023-12-28T09:27:14;21.60;;;3.13;;
75220;SDS011;63802;53.232;6.570;2023-12-28T09:29:39;14.00;;;2.63;;
75220;SDS011;63802;53.232;6.570;2023-12-28T09:32:05;20.00;;;3.30;;
75220;SDS011;63802;53.232;6.570;2023-12-28T09:34:30;11.05;;;2.70;;
75220;SDS011;63802;53.232;6.570;2023-12-28T09:36:57;21.15;;;3.28;;
75220;SDS011;63802;53.232;6.570;2023-12-28T09:39:24;24.75;;;3.50;;
75220;SDS011;63802;53.232;6.570;2023-12-28T09:41:54;22.10;;;2.90;;
75220;SDS011;63802;53.232;6.570;2023-12-28T09:44:24;14.80;;;3.13;;
75220;SDS011;63802;53.232;6.570;2023-12-28T09:46:50;20.17;;;3.05;;
75220;SDS011;63802;53.232;6.570;2023-12-28T09:49:19;12.88;;;2.95;;
75220;SDS011;63802;53.232;6.570;2023-12-28T09:51:46;16.80;;;2.60;;
75220;SDS011;63802;53.232;6.570;2023-12-28T09:54:12;18.83;;;2.80;;
75220;SDS011;63802;53.232;6.570;2023-12-28T09:56:38;28.15;;;3.60;;
75220;SDS011;63802;53.232;6.570;2023-12-28T09:59:05;17.60;;;3.25;;
75220;SDS011;63802;53.232;6.570;2023-12-28T10:01:32;23.85;;;3.17;;
75220;SDS011;63802;53.232;6.570;2023-12-28T10:03:59;19.38;;;3.00;;
75220;SDS011;63802;53.232;6.570;2023-12-28T10:06:25;17.10;;;2.88;;
75220;SDS011;63802;53.232;6.570;2023-12-28T10:08:51;17.23;;;2.65;;
75220;SDS011;63802;53.232;6.570;2023-12-28T10:11:17;20.40;;;2.65;;
75220;SDS011;63802;53.232;6.570;2023-12-28T10:13:43;18.90;;;2.67;;
75220;SDS011;63802;53.232;6.570;2023-12-28T10:16:12;17.55;;;2.63;;
75220;SDS011;63802;53.232;6.570;2023-12-28T10:18:43;14.40;;;2.70;;
75220;SDS011;63802;53.232;6.570;2023-12-28T10:21:09;17.08;;;3.00;;
75220;SDS011;63802;53.232;6.570;2023-12-28T10:23:35;16.40;;;2.83;;
75220;SDS011;63802;53.232;6.570;2023-12-28T10:26:00;18.58;;;3.25;;
75220;SDS011;63802;53.232;6.570;2023-12-28T10:28:27;19.35;;;2.92;;
75220;SDS011;63802;53.232;6.570;2023-12-28T10:30:55;13.50;;;2.53;;
75220;SDS011;63802;53.232;6.570;2023-12-28T10:33:21;17.08;;;2.53;;
75220;SDS011;63802;53.232;6.570;2023-12-28T10:35:48;12.30;;;2.58;;
75220;SDS011;63802;53.232;6.570;2023-12-28T10:38:17;14.75;;;2.58;;
75220;SDS011;63802;53.232;6.570;2023-12-28T10:40:43;18.40;;;3.25;;
75220;SDS011;63802;53.232;6.570;2023-12-28T10:43:11;12.65;;;2.80;;
75220;SDS011;63802;53.232;6.570;2023-12-28T10:45:41;11.85;;;2.75;;
75220;SDS011;63802;53.232;6.570;2023-12-28T10:48:11;13.63;;;2.80;;
75220;SDS011;63802;53.232;6.570;2023-12-28T10:53:04;19.45;;;3.13;;
75220;SDS011;63802;53.232;6.570;2023-12-28T10:55:40;25.00;;;3.17;;
75220;SDS011;63802;53.232;6.570;2023-12-28T11:01:12;13.50;;;3.08;;
75220;SDS011;63802;53.232;6.570;2023-12-28T11:04:37;16.20;;;3.47;;
75220;SDS011;63802;53.232;6.570;2023-12-28T11:06:59;14.18;;;2.33;;
75220;SDS011;63802;53.232;6.570;2023-12-28T11:09:27;11.65;;;2.33;;
75220;SDS011;63802;53.232;6.570;2023-12-28T11:11:56;21.67;;;3.55;;
75220;SDS011;63802;53.232;6.570;2023-12-28T11:14:24;16.73;;;2.63;;
75220;SDS011;63802;53.232;6.570;2023-12-28T11:16:51;15.10;;;2.17;;
75220;SDS011;63802;53.232;6.570;2023-12-28T11:21:52;28.58;;;4.05;;
75220;SDS011;63802;53.232;6.570;2023-12-28T11:24:18;12.73;;;2.53;;
75220;SDS011;63802;53.232;6.570;2023-12-28T11:26:44;20.30;;;3.90;;
75220;SDS011;63802;53.232;6.570;2023-12-28T11:29:20;15.65;;;2.58;;
75220;SDS011;63802;53.232;6.570;2023-12-28T11:31:57;14.00;;;2.33;;
75220;SDS011;63802;53.232;6.570;2023-12-28T11:34:30;20.73;;;2.97;;
75220;SDS011;63802;53.232;6.570;2023-12-28T11:36:57;25.45;;;3.05;;
75220;SDS011;63802;53.232;6.570;2023-12-28T11:39:32;17.48;;;2.53;;
75220;SDS011;63802;53.232;6.570;2023-12-28T11:41:59;10.88;;;2.22;;
75220;SDS011;63802;53.232;6.570;2023-12-28T11:44:28;21.67;;;2.88;;
75220;SDS011;63802;53.232;6.570;2023-12-28T11:46:53;18.70;;;3.30;;
75220;SDS011;63802;53.232;6.570;2023-12-28T11:49:24;21.25;;;2.97;;
75220;SDS011;63802;53.232;6.570;2023-12-28T11:51:56;23.13;;;4.18;;
75220;SDS011;63802;53.232;6.570;2023-12-28T11:54:25;20.70;;;2.75;;
75220;SDS011;63802;53.232;6.570;2023-12-28T11:56:51;16.85;;;5.03;;
75220;SDS011;63802;53.232;6.570;2023-12-28T11:59:18;13.85;;;3.33;;
75220;SDS011;63802;53.232;6.570;2023-12-28T12:01:49;16.70;;;2.78;;
75220;SDS011;63802;53.232;6.570;2023-12-28T12:04:16;14.60;;;2.67;;
75220;SDS011;63802;53.232;6.570;2023-12-28T12:06:42;15.75;;;3.28;;
75220;SDS011;63802;53.232;6.570;2023-12-28T12:09:10;21.73;;;4.07;;
75220;SDS011;63802;53.232;6.570;2023-12-28T12:11:36;17.33;;;2.85;;
75220;SDS011;63802;53.232;6.570;2023-12-28T12:14:03;18.90;;;3.38;;
75220;SDS011;63802;53.232;6.570;2023-12-28T12:16:31;22.42;;;3.53;;
75220;SDS011;63802;53.232;6.570;2023-12-28T12:18:57;18.10;;;2.90;;
75220;SDS011;63802;53.232;6.570;2023-12-28T12:21:23;18.98;;;2.70;;
75220;SDS011;63802;53.232;6.570;2023-12-28T12:23:49;12.95;;;2.40;;
75220;SDS011;63802;53.232;6.570;2023-12-28T12:26:17;25.63;;;2.92;;
75220;SDS011;63802;53.232;6.570;2023-12-28T12:28:43;23.73;;;3.00;;
75220;SDS011;63802;53.232;6.570;2023-12-28T12:31:09;19.77;;;3.72;;
75220;SDS011;63802;53.232;6.570;2023-12-28T12:33:36;18.63;;;3.63;;
75220;SDS011;63802;53.232;6.570;2023-12-28T12:36:03;22.98;;;4.05;;
75220;SDS011;63802;53.232;6.570;2023-12-28T12:38:30;22.08;;;3.60;;
75220;SDS011;63802;53.232;6.570;2023-12-28T12:40:57;28.15;;;3.15;;
75220;SDS011;63802;53.232;6.570;2023-12-28T12:43:23;20.05;;;3.08;;
75220;SDS011;63802;53.232;6.570;2023-12-28T12:45:49;14.02;;;2.70;;
75220;SDS011;63802;53.232;6.570;2023-12-28T12:48:15;23.17;;;3.17;;
75220;SDS011;63802;53.232;6.570;2023-12-28T12:50:41;15.85;;;2.85;;
75220;SDS011;63802;53.232;6.570;2023-12-28T12:53:06;16.48;;;3.05;;
75220;SDS011;63802;53.232;6.570;2023-12-28T12:55:32;12.48;;;2.72;;
75220;SDS011;63802;53.232;6.570;2023-12-28T12:57:58;21.35;;;3.30;;
75220;SDS011;63802;53.232;6.570;2023-12-28T13:00:24;21.42;;;3.30;;
75220;SDS011;63802;53.232;6.570;2023-12-28T13:02:50;18.90;;;3.33;;
75220;SDS011;63802;53.232;6.570;2023-12-28T13:05:17;16.67;;;3.20;;
75220;SDS011;63802;53.232;6.570;2023-12-28T13:07:43;16.90;;;2.83;;
75220;SDS011;63802;53.232;6.570;2023-12-28T13:10:08;13.77;;;3.22;;
75220;SDS011;63802;53.232;6.570;2023-12-28T13:12:36;23.85;;;2.97;;
75220;SDS011;63802;53.232;6.570;2023-12-28T13:15:02;15.00;;;2.45;;
75220;SDS011;63802;53.232;6.570;2023-12-28T13:17:28;14.73;;;2.17;;
75220;SDS011;63802;53.232;6.570;2023-12-28T13:19:53;17.92;;;3.17;;
75220;SDS011;63802;53.232;6.570;2023-12-28T13:22:19;17.52;;;3.70;;
75220;SDS011;63802;53.232;6.570;2023-12-28T13:24:44;13.18;;;3.50;;
75220;SDS011;63802;53.232;6.570;2023-12-28T13:27:09;19.83;;;3.17;;
75220;SDS011;63802;53.232;6.570;2023-12-28T13:29:35;18.90;;;3.53;;
75220;SDS011;63802;53.232;6.570;2023-12-28T13:32:01;12.35;;;2.38;;
75220;SDS011;63802;53.232;6.570;2023-12-28T13:34:26;16.92;;;3.25;;
75220;SDS011;63802;53.232;6.570;2023-12-28T13:36:53;16.20;;;3.15;;
75220;SDS011;63802;53.232;6.570;2023-12-28T13:39:19;14.60;;;2.45;;
75220;SDS011;63802;53.232;6.570;2023-12-28T13:41:47;17.23;;;3.30;;
75220;SDS011;63802;53.232;6.570;2023-12-28T13:44:12;12.88;;;2.90;;
75220;SDS011;63802;53.232;6.570;2023-12-28T13:46:38;18.08;;;2.70;;
75220;SDS011;63802;53.232;6.570;2023-12-28T13:49:04;20.90;;;3.33;;
75220;SDS011;63802;53.232;6.570;2023-12-28T13:51:31;15.70;;;2.70;;
75220;SDS011;63802;53.232;6.570;2023-12-28T13:53:57;17.88;;;2.97;;
75220;SDS011;63802;53.232;6.570;2023-12-28T13:56:22;18.35;;;3.38;;
75220;SDS011;63802;53.232;6.570;2023-12-28T13:58:47;22.88;;;3.20;;
75220;SDS011;63802;53.232;6.570;2023-12-28T14:01:13;19.33;;;2.78;;
75220;SDS011;63802;53.232;6.570;2023-12-28T14:03:38;17.02;;;3.25;;
75220;SDS011;63802;53.232;6.570;2023-12-28T14:06:04;18.30;;;2.88;;
75220;SDS011;63802;53.232;6.570;2023-12-28T14:08:30;18.65;;;2.40;;
75220;SDS011;63802;53.232;6.570;2023-12-28T14:10:55;18.63;;;3.38;;
75220;SDS011;63802;53.232;6.570;2023-12-28T14:13:20;18.80;;;2.90;;
75220;SDS011;63802;53.232;6.570;2023-12-28T14:15:46;19.50;;;2.75;;
75220;SDS011;63802;53.232;6.570;2023-12-28T14:18:12;19.77;;;3.38;;
75220;SDS011;63802;53.232;6.570;2023-12-28T14:20:37;14.32;;;2.75;;
75220;SDS011;63802;53.232;6.570;2023-12-28T14:23:02;16.60;;;3.00;;
75220;SDS011;63802;53.232;6.570;2023-12-28T14:25:29;16.42;;;2.25;;
75220;SDS011;63802;53.232;6.570;2023-12-28T14:27:55;14.68;;;2.90;;
75220;SDS011;63802;53.232;6.570;2023-12-28T14:30:21;19.00;;;3.97;;
75220;SDS011;63802;53.232;6.570;2023-12-28T14:32:47;14.00;;;3.05;;
75220;SDS011;63802;53.232;6.570;2023-12-28T14:35:13;18.50;;;2.90;;
75220;SDS011;63802;53.232;6.570;2023-12-28T14:37:41;9.57;;;2.40;;
75220;SDS011;63802;53.232;6.570;2023-12-28T14:40:07;16.35;;;3.33;;
75220;SDS011;63802;53.232;6.570;2023-12-28T14:42:34;19.25;;;2.55;;
75220;SDS011;63802;53.232;6.570;2023-12-28T14:45:00;22.30;;;3.33;;